Time;durP1;ratioP1;P1;durP2;ratioP2;P2;SDS_P1;SDS_P2;PMS_P1;PMS_P2;Temp;Humidity;BMP_temperature;BMP_pressure;BME280_temperature;BME280_humidity;BME280_pressure;Samples;Min_cycle;Max_cycle;Signal;HPM_P1;HPM_P2
2022/05/27 00:01:58;;;;;;;1.17;0.73;;;18.60;99.90;;;;;;5030510;28;20303;-76
2022/05/27 00:04:24;;;;;;;1.20;0.90;;;18.50;99.90;;;;;;5038314;28;20172;-73
2022/05/27 00:06:49;;;;;;;2.40;1.08;;;18.50;99.90;;;;;;5043747;28;20355;-74
2022/05/27 00:09:15;;;;;;;1.85;0.93;;;18.50;99.90;;;;;;5031330;28;20361;-74
2022/05/27 00:11:43;;;;;;;2.08;1.13;;;18.40;99.90;;;;;;5037514;28;20254;-73
2022/05/27 00:14:08;;;;;;;1.00;0.80;;;18.40;99.90;;;;;;5031172;28;20265;-75
2022/05/27 00:16:34;;;;;;;2.55;1.00;;;18.40;99.90;;;;;;5035565;28;20272;-75
2022/05/27 00:19:00;;;;;;;2.15;0.90;;;18.40;99.90;;;;;;5028970;28;20292;-74
2022/05/27 00:21:26;;;;;;;1.48;1.10;;;18.40;99.90;;;;;;5027012;28;20165;-75
2022/05/27 00:23:56;;;;;;;2.88;1.73;;;18.40;99.90;;;;;;5044451;28;20197;-75
2022/05/27 00:26:24;;;;;;;2.50;1.35;;;18.40;99.90;;;;;;5044537;28;20204;-74
2022/05/27 00:28:52;;;;;;;2.58;1.48;;;18.30;99.90;;;;;;5034932;28;20189;-73
2022/05/27 00:31:20;;;;;;;2.03;1.10;;;18.30;99.90;;;;;;5036942;28;20178;-74
2022/05/27 00:33:47;;;;;;;4.13;0.80;;;18.30;99.90;;;;;;5033843;28;20477;-76
2022/05/27 00:36:14;;;;;;;1.17;1.00;;;18.20;99.90;;;;;;5043492;28;20191;-75
2022/05/27 00:38:41;;;;;;;1.00;0.80;;;18.30;99.90;;;;;;5031721;28;20181;-74
2022/05/27 00:41:07;;;;;;;1.92;0.98;;;18.20;99.90;;;;;;5043605;28;20273;-74
2022/05/27 00:43:33;;;;;;;2.97;1.20;;;18.20;99.90;;;;;;5039417;28;20197;-74
2022/05/27 00:46:21;;;;;;;2.08;1.05;;;18.20;99.90;;;;;;5035576;28;20189;-72
2022/05/27 00:48:53;;;;;;;1.50;1.02;;;18.20;99.90;;;;;;5034470;28;20293;-75
2022/05/27 00:51:29;;;;;;;1.15;0.80;;;18.20;99.90;;;;;;5025697;28;20173;-75
2022/05/27 00:54:10;;;;;;;1.13;0.90;;;18.20;99.90;;;;;;5030250;28;20228;-74
2022/05/27 00:56:40;;;;;;;1.48;1.00;;;18.20;99.90;;;;;;5043624;28;20192;-74
2022/05/27 00:59:17;;;;;;;1.17;1.05;;;18.20;99.90;;;;;;5048178;28;20182;-75
2022/05/27 01:01:43;;;;;;;2.00;1.10;;;18.20;99.90;;;;;;5035157;28;20200;-75
2022/05/27 01:04:10;;;;;;;1.67;1.17;;;18.20;99.90;;;;;;5029152;28;20173;-76
2022/05/27 01:06:35;;;;;;;2.17;1.10;;;18.20;99.90;;;;;;5032915;28;20201;-74
2022/05/27 01:09:02;;;;;;;1.55;1.20;;;18.20;99.90;;;;;;5056864;28;20248;-75
2022/05/27 01:11:57;;;;;;;2.42;1.25;;;18.10;99.90;;;;;;5017841;28;20174;-74
2022/05/27 01:14:57;;;;;;;1.08;0.80;;;18.10;99.90;;;;;;5027737;28;20202;-75
2022/05/27 01:17:41;;;;;;;1.25;0.98;;;18.10;99.90;;;;;;5042915;28;20234;-73
2022/05/27 01:20:19;;;;;;;1.65;1.00;;;18.10;99.90;;;;;;5033458;28;20243;-75
2022/05/27 01:23:15;;;;;;;1.45;0.90;;;18.10;99.90;;;;;;5033983;28;20194;-74
2022/05/27 01:25:59;;;;;;;1.60;0.90;;;18.10;99.90;;;;;;5030029;28;20173;-74
2022/05/27 01:28:28;;;;;;;1.83;0.75;;;18.10;99.90;;;;;;5031803;28;20173;-73
2022/05/27 01:31:09;;;;;;;1.77;1.00;;;18.10;99.90;;;;;;5031863;28;20173;-75
2022/05/27 01:33:37;;;;;;;2.80;1.30;;;18.10;99.90;;;;;;5033422;28;20417;-75
2022/05/27 01:36:05;;;;;;;1.65;1.00;;;18.00;99.90;;;;;;5039417;28;20192;-76
2022/05/27 01:38:37;;;;;;;1.95;1.00;;;18.00;99.90;;;;;;5028996;28;20219;-74
2022/05/27 01:41:19;;;;;;;1.45;0.90;;;18.00;99.90;;;;;;5037372;28;20213;-72
2022/05/27 01:43:47;;;;;;;1.85;1.08;;;18.00;99.90;;;;;;5055484;28;20425;-76
2022/05/27 01:46:28;;;;;;;1.48;0.90;;;17.90;99.90;;;;;;5046907;28;20216;-75
2022/05/27 01:49:15;;;;;;;1.92;1.08;;;17.90;99.90;;;;;;5036077;28;20184;-73
2022/05/27 01:51:40;;;;;;;1.75;1.08;;;17.90;99.90;;;;;;5034473;28;20260;-73
2022/05/27 01:54:33;;;;;;;2.10;1.17;;;17.80;99.90;;;;;;5025328;28;20220;-72
2022/05/27 01:57:13;;;;;;;1.63;0.77;;;17.80;99.90;;;;;;5043798;28;20174;-77
2022/05/27 01:59:54;;;;;;;1.90;1.00;;;17.70;99.90;;;;;;5062868;28;20176;-72
2022/05/27 02:02:23;;;;;;;2.17;1.00;;;17.70;99.90;;;;;;5045036;28;20215;-73
2022/05/27 02:04:58;;;;;;;1.45;1.00;;;17.70;99.90;;;;;;5036156;28;20174;-75
2022/05/27 02:07:34;;;;;;;2.70;1.27;;;17.60;99.90;;;;;;5038240;28;20193;-76
2022/05/27 02:10:06;;;;;;;2.88;1.10;;;17.60;99.90;;;;;;5038411;28;20541;-75
2022/05/27 02:12:47;;;;;;;1.70;1.05;;;17.60;99.90;;;;;;5032650;28;20170;-75
2022/05/27 02:15:39;;;;;;;1.63;1.10;;;17.50;99.90;;;;;;5035847;28;20173;-75
2022/05/27 02:18:26;;;;;;;2.17;0.98;;;17.50;99.90;;;;;;5042121;28;20178;-73
2022/05/27 02:21:03;;;;;;;1.52;1.00;;;17.50;99.90;;;;;;5039380;28;20266;-74
2022/05/27 02:23:40;;;;;;;1.83;1.10;;;17.50;99.90;;;;;;5035920;28;20193;-72
2022/05/27 02:26:15;;;;;;;2.60;1.20;;;17.50;99.90;;;;;;5035272;28;20193;-76
2022/05/27 02:28:55;;;;;;;1.77;1.33;;;17.40;99.90;;;;;;5032891;28;20160;-75
2022/05/27 02:31:28;;;;;;;1.85;1.20;;;17.50;99.90;;;;;;5036436;28;20188;-76
2022/05/27 02:36:56;;;;;;;2.63;1.25;;;17.40;99.90;;;;;;5049632;28;20259;-75
2022/05/27 02:39:22;;;;;;;1.95;1.20;;;17.40;99.90;;;;;;5040007;28;20265;-75
2022/05/27 02:42:14;;;;;;;2.03;1.20;;;17.40;99.90;;;;;;5037359;28;20276;-75
2022/05/27 02:44:48;;;;;;;2.13;1.10;;;17.40;99.90;;;;;;5036682;28;20174;-74
2022/05/27 02:47:22;;;;;;;2.08;1.27;;;17.40;99.90;;;;;;5040721;28;20173;-76
2022/05/27 02:50:05;;;;;;;2.53;1.00;;;17.30;99.90;;;;;;5036041;28;20189;-75
2022/05/27 02:53:08;;;;;;;1.73;1.23;;;17.30;99.90;;;;;;5034635;28;20221;-75
2022/05/27 02:55:53;;;;;;;2.45;1.10;;;17.30;99.90;;;;;;5026276;28;20265;-75
2022/05/27 02:58:20;;;;;;;3.35;1.20;;;17.30;99.90;;;;;;5029059;28;20190;-74
2022/05/27 03:00:46;;;;;;;3.05;1.10;;;17.30;99.90;;;;;;5021521;28;20193;-75
2022/05/27 03:03:14;;;;;;;1.63;1.00;;;17.30;99.90;;;;;;5039053;28;20200;-74
2022/05/27 03:06:18;;;;;;;2.72;1.25;;;17.40;99.90;;;;;;5036240;28;20205;-76
2022/05/27 03:08:59;;;;;;;1.95;1.30;;;17.30;99.90;;;;;;4998439;28;20211;-75
2022/05/27 03:11:47;;;;;;;1.67;1.02;;;17.30;99.90;;;;;;5036513;28;20202;-75
2022/05/27 03:14:33;;;;;;;1.92;1.20;;;17.30;99.90;;;;;;5048188;28;20181;-73
2022/05/27 03:17:18;;;;;;;1.88;1.00;;;17.30;99.90;;;;;;5043312;28;20174;-75
2022/05/27 03:20:02;;;;;;;1.30;1.00;;;17.30;99.90;;;;;;5048648;28;20236;-76
2022/05/27 03:22:48;;;;;;;2.60;1.08;;;17.30;99.90;;;;;;5042322;28;20200;-75
2022/05/27 03:25:32;;;;;;;1.52;1.00;;;17.30;99.90;;;;;;5042814;28;20258;-75
2022/05/27 03:28:32;;;;;;;2.38;1.15;;;17.30;99.90;;;;;;5045629;28;20188;-75
2022/05/27 03:31:06;;;;;;;1.92;1.00;;;17.30;99.90;;;;;;5042216;28;20196;-72
2022/05/27 03:33:46;;;;;;;2.75;1.10;;;17.30;99.90;;;;;;5037335;28;20181;-75
2022/05/27 03:36:12;;;;;;;2.63;0.98;;;17.30;99.90;;;;;;5039204;28;20181;-76
2022/05/27 03:38:49;;;;;;;2.90;1.10;;;17.30;99.90;;;;;;5029121;28;20189;-74
2022/05/27 03:41:26;;;;;;;0.82;0.65;;;17.20;99.90;;;;;;5037699;28;20220;-76
2022/05/27 03:43:56;;;;;;;1.13;0.90;;;17.20;99.90;;;;;;5048926;28;20228;-75
2022/05/27 03:46:34;;;;;;;1.55;0.90;;;17.10;99.90;;;;;;5038424;28;20165;-74
2022/05/27 03:49:03;;;;;;;1.50;0.82;;;17.10;99.90;;;;;;5035019;28;20181;-72
2022/05/27 03:51:41;;;;;;;1.85;0.85;;;17.00;99.90;;;;;;5039264;28;20264;-75
2022/05/27 03:54:10;;;;;;;2.85;1.13;;;16.90;99.90;;;;;;5037767;28;20227;-75
2022/05/27 03:56:37;;;;;;;1.52;1.05;;;16.90;99.90;;;;;;5023201;28;20190;-75
2022/05/27 03:59:06;;;;;;;3.13;1.10;;;16.80;99.90;;;;;;5037223;28;20205;-76
2022/05/27 04:01:36;;;;;;;1.88;1.00;;;16.80;99.90;;;;;;5038116;28;20296;-77
2022/05/27 04:04:05;;;;;;;2.75;0.88;;;16.70;99.90;;;;;;5038402;28;20193;-75
2022/05/27 04:06:31;;;;;;;1.13;0.90;;;16.70;99.90;;;;;;5038754;28;20279;-74
2022/05/27 04:09:00;;;;;;;1.98;0.80;;;16.70;99.90;;;;;;5037641;28;20208;-74
2022/05/27 04:11:27;;;;;;;1.40;1.00;;;16.60;99.90;;;;;;5045252;28;20260;-76
2022/05/27 04:13:53;;;;;;;1.58;0.80;;;16.60;99.90;;;;;;5054688;28;20182;-74
2022/05/27 04:16:19;;;;;;;1.75;0.80;;;16.60;99.90;;;;;;5034622;28;20184;-74
2022/05/27 04:18:45;;;;;;;1.48;0.88;;;16.60;99.90;;;;;;5019188;28;20177;-75
2022/05/27 04:21:11;;;;;;;1.40;0.80;;;16.60;99.90;;;;;;5018098;28;20235;-75
2022/05/27 04:23:37;;;;;;;0.98;0.70;;;16.60;99.90;;;;;;5031846;28;20203;-74
2022/05/27 04:26:03;;;;;;;1.40;0.90;;;16.60;99.90;;;;;;5052736;28;20208;-75
2022/05/27 04:28:33;;;;;;;1.73;0.82;;;16.70;99.90;;;;;;5040391;28;20207;-76
2022/05/27 04:31:02;;;;;;;0.80;0.57;;;16.70;99.90;;;;;;5033842;28;20269;-77
2022/05/27 04:33:28;;;;;;;1.10;0.60;;;16.70;99.90;;;;;;5040703;28;20169;-75
2022/05/27 04:35:57;;;;;;;0.82;0.65;;;16.80;99.90;;;;;;5061184;28;20192;-76
2022/05/27 04:38:22;;;;;;;1.45;0.63;;;16.80;99.90;;;;;;5048128;28;20198;-71
2022/05/27 04:40:51;;;;;;;1.20;0.70;;;16.80;99.90;;;;;;5035246;28;20173;-75
2022/05/27 04:43:17;;;;;;;0.98;0.65;;;16.80;99.90;;;;;;5052841;28;20186;-75
2022/05/27 04:45:43;;;;;;;0.70;0.55;;;16.80;99.90;;;;;;5036097;28;20282;-76
2022/05/27 04:48:10;;;;;;;1.25;0.57;;;16.90;99.90;;;;;;5059377;28;20174;-75
2022/05/27 04:50:39;;;;;;;0.50;0.50;;;16.90;99.90;;;;;;5046022;28;20180;-76
2022/05/27 04:53:07;;;;;;;1.75;0.47;;;16.80;99.90;;;;;;5037757;28;20169;-75
2022/05/27 04:55:34;;;;;;;0.95;0.60;;;16.80;99.90;;;;;;5023555;28;20212;-75
2022/05/27 04:58:02;;;;;;;1.20;0.60;;;16.80;99.90;;;;;;5027157;28;20196;-74
2022/05/27 05:00:34;;;;;;;1.10;0.60;;;16.80;99.90;;;;;;5038541;28;20453;-73
2022/05/27 05:03:04;;;;;;;1.95;0.77;;;16.80;99.90;;;;;;5025575;28;20277;-73
2022/05/27 05:05:32;;;;;;;0.82;0.60;;;16.80;99.90;;;;;;5038897;28;20165;-75
2022/05/27 05:08:06;;;;;;;1.15;0.70;;;16.80;99.90;;;;;;5040013;28;20177;-75
2022/05/27 05:10:34;;;;;;;1.20;0.70;;;16.80;99.90;;;;;;5031072;28;20205;-73
2022/05/27 05:13:00;;;;;;;1.45;0.70;;;16.80;99.90;;;;;;5026268;28;20181;-73
2022/05/27 05:15:27;;;;;;;0.73;0.50;;;16.80;99.90;;;;;;5034701;28;20200;-75
2022/05/27 05:17:53;;;;;;;2.72;0.95;;;16.70;99.90;;;;;;5026831;28;20217;-76
2022/05/27 05:20:23;;;;;;;0.98;0.60;;;16.70;99.90;;;;;;5042360;28;20187;-75
2022/05/27 05:22:51;;;;;;;1.92;0.60;;;16.60;99.90;;;;;;5042086;28;20201;-75
2022/05/27 05:25:17;;;;;;;0.60;0.50;;;16.60;99.90;;;;;;5035322;28;20244;-76
2022/05/27 05:27:43;;;;;;;1.10;0.40;;;16.60;99.90;;;;;;5036068;28;20177;-75
2022/05/27 05:30:16;;;;;;;0.57;0.40;;;16.50;99.90;;;;;;5043514;28;20274;-74
2022/05/27 05:32:42;;;;;;;0.55;0.50;;;16.50;99.90;;;;;;5043793;28;20182;-74
2022/05/27 05:35:09;;;;;;;0.98;0.50;;;16.50;99.90;;;;;;5025167;28;20185;-76
2022/05/27 05:37:39;;;;;;;0.40;0.40;;;16.50;99.90;;;;;;5027334;28;20178;-76
2022/05/27 05:40:06;;;;;;;2.47;0.63;;;16.50;99.90;;;;;;5042579;28;20201;-75
2022/05/27 05:42:31;;;;;;;0.82;0.50;;;16.50;99.90;;;;;;5036027;28;20208;-76
2022/05/27 05:44:59;;;;;;;1.25;0.60;;;16.50;99.90;;;;;;5039140;28;20196;-74
2022/05/27 05:47:25;;;;;;;1.23;0.63;;;16.50;99.90;;;;;;5019766;28;20229;-74
2022/05/27 05:49:51;;;;;;;1.13;0.60;;;16.50;99.90;;;;;;5036210;28;20324;-74
2022/05/27 05:52:16;;;;;;;1.23;0.73;;;16.50;99.90;;;;;;5035209;28;20287;-76
2022/05/27 05:54:42;;;;;;;1.27;0.80;;;16.50;99.90;;;;;;5031620;28;20170;-74
2022/05/27 05:57:08;;;;;;;1.27;1.00;;;16.50;99.90;;;;;;5044203;28;20238;-73
2022/05/27 05:59:35;;;;;;;2.25;0.90;;;16.50;99.90;;;;;;5036317;28;20292;-74
2022/05/27 06:02:01;;;;;;;1.48;0.65;;;16.50;99.90;;;;;;5019791;28;20205;-73
2022/05/27 06:04:28;;;;;;;1.05;0.60;;;16.50;99.90;;;;;;5031703;28;20227;-76
2022/05/27 06:06:56;;;;;;;0.70;0.70;;;16.50;99.90;;;;;;5033150;28;20180;-74
2022/05/27 06:09:25;;;;;;;0.73;0.73;;;16.50;99.90;;;;;;5018298;28;20176;-73
2022/05/27 06:11:53;;;;;;;1.08;0.70;;;16.50;99.90;;;;;;5035267;28;20280;-75
2022/05/27 06:14:19;;;;;;;0.60;0.60;;;16.50;99.90;;;;;;5031366;28;20169;-77
2022/05/27 06:16:44;;;;;;;0.60;0.50;;;16.50;99.90;;;;;;5042377;28;20234;-76
2022/05/27 06:19:10;;;;;;;2.08;0.80;;;16.50;99.90;;;;;;5020361;28;20182;-75
2022/05/27 06:21:36;;;;;;;2.50;0.60;;;16.40;99.90;;;;;;5045826;28;20177;-74
2022/05/27 06:24:01;;;;;;;0.80;0.60;;;16.50;99.90;;;;;;5031747;28;20205;-73
2022/05/27 06:26:29;;;;;;;0.98;0.60;;;16.40;99.90;;;;;;5039253;28;20180;-75
2022/05/27 06:34:25;;;;;;;0.75;0.60;;;16.30;99.90;;;;;;5051692;28;20203;-76
2022/05/27 06:37:03;;;;;;;0.90;0.70;;;16.30;99.90;;;;;;5034615;28;20201;-74
2022/05/27 06:39:31;;;;;;;0.80;0.55;;;16.40;99.90;;;;;;5035042;28;20177;-75
2022/05/27 06:41:59;;;;;;;0.82;0.57;;;16.40;99.90;;;;;;5042963;28;20177;-74
2022/05/27 06:44:25;;;;;;;0.80;0.60;;;16.40;99.90;;;;;;5032789;28;20213;-74
2022/05/27 06:46:58;;;;;;;0.70;0.70;;;16.40;99.90;;;;;;5037834;28;20263;-72
2022/05/27 06:49:29;;;;;;;0.63;0.60;;;16.40;99.90;;;;;;5034697;28;20276;-75
2022/05/27 06:51:55;;;;;;;0.95;0.60;;;16.40;99.90;;;;;;5032521;28;20329;-74
2022/05/27 06:54:22;;;;;;;0.98;0.68;;;16.40;99.90;;;;;;5037395;28;20184;-75
2022/05/27 06:56:52;;;;;;;0.73;0.60;;;16.40;99.90;;;;;;5034163;28;20197;-75
2022/05/27 06:59:19;;;;;;;0.60;0.60;;;16.30;99.90;;;;;;5031523;28;20185;-74
2022/05/27 07:01:48;;;;;;;0.60;0.50;;;16.30;99.90;;;;;;5036096;28;20216;-74
2022/05/27 07:04:14;;;;;;;0.65;0.57;;;16.30;99.90;;;;;;5039620;28;20262;-77
2022/05/27 07:06:45;;;;;;;0.90;0.70;;;16.30;99.90;;;;;;5043046;28;20400;-75
2022/05/27 07:09:12;;;;;;;0.98;0.68;;;16.20;99.90;;;;;;5038990;28;20260;-81
2022/05/27 07:11:40;;;;;;;0.90;0.80;;;16.20;99.90;;;;;;5038359;28;20264;-83
2022/05/27 07:14:05;;;;;;;0.90;0.73;;;16.20;99.90;;;;;;5038627;28;20261;-81
2022/05/27 07:16:34;;;;;;;1.13;0.70;;;16.20;99.90;;;;;;5033675;28;20189;-80
2022/05/27 07:19:00;;;;;;;1.45;0.82;;;16.20;99.90;;;;;;5053998;28;20624;-78
2022/05/27 07:21:28;;;;;;;0.68;0.47;;;16.20;99.90;;;;;;5044042;28;20204;-80
2022/05/27 07:23:54;;;;;;;0.73;0.60;;;16.20;99.90;;;;;;5043816;28;20208;-82
2022/05/27 07:26:21;;;;;;;1.15;0.52;;;16.20;99.90;;;;;;5044249;28;20194;-79
2022/05/27 07:28:50;;;;;;;4.97;0.90;;;16.20;99.90;;;;;;5044732;28;20174;-76
2022/05/27 07:31:19;;;;;;;2.47;1.10;;;16.20;99.90;;;;;;5028100;28;20173;-80
2022/05/27 07:33:47;;;;;;;2.55;1.10;;;16.20;99.90;;;;;;5036619;28;20259;-79
2022/05/27 07:36:16;;;;;;;1.17;0.98;;;16.10;99.90;;;;;;5031648;28;20174;-81
2022/05/27 07:38:41;;;;;;;1.13;0.95;;;16.10;99.90;;;;;;5037750;28;20181;-74
2022/05/27 07:41:07;;;;;;;2.55;1.20;;;16.00;99.90;;;;;;5025761;28;20188;-82
2022/05/27 07:43:33;;;;;;;1.15;1.05;;;15.90;99.90;;;;;;5031247;28;20197;-80
2022/05/27 07:45:59;;;;;;;1.08;0.98;;;15.90;99.90;;;;;;5046441;28;20201;-79
2022/05/27 07:48:25;;;;;;;1.33;1.10;;;15.80;99.90;;;;;;5037094;28;20174;-84
2022/05/27 07:50:53;;;;;;;1.83;1.20;;;15.70;99.90;;;;;;5034537;28;20172;-79
2022/05/27 07:53:19;;;;;;;1.40;1.17;;;15.70;99.90;;;;;;5038115;28;20187;-80
2022/05/27 07:55:48;;;;;;;1.98;1.30;;;15.70;99.90;;;;;;5036308;28;20256;-82
2022/05/27 07:58:15;;;;;;;2.17;1.10;;;15.70;99.90;;;;;;5035234;28;20201;-80
2022/05/27 08:00:44;;;;;;;1.35;1.17;;;15.60;99.90;;;;;;5037002;28;20232;-75
2022/05/27 08:03:10;;;;;;;1.45;1.00;;;15.60;99.90;;;;;;5061129;28;20280;-73
2022/05/27 08:05:39;;;;;;;2.53;1.20;;;15.60;99.90;;;;;;5061485;28;20170;-85
2022/05/27 08:08:08;;;;;;;1.35;1.20;;;15.50;99.90;;;;;;5067837;28;20181;-85
2022/05/27 08:10:35;;;;;;;1.20;1.02;;;15.50;99.90;;;;;;5059251;28;20288;-80
2022/05/27 08:13:04;;;;;;;1.80;1.20;;;15.50;99.90;;;;;;5038540;28;20235;-83
2022/05/27 08:15:32;;;;;;;2.03;1.15;;;15.40;99.90;;;;;;5040447;28;20206;-86
2022/05/27 08:17:59;;;;;;;1.95;1.10;;;15.40;99.90;;;;;;5052082;28;20181;-86
2022/05/27 08:20:28;;;;;;;1.52;1.27;;;15.40;99.90;;;;;;5037872;28;20177;-80
2022/05/27 08:22:57;;;;;;;1.35;1.10;;;15.40;99.90;;;;;;5034865;28;20201;-80
2022/05/27 08:25:26;;;;;;;1.83;1.10;;;15.40;99.90;;;;;;5027472;28;20258;-82
2022/05/27 08:27:52;;;;;;;2.13;1.05;;;15.50;99.90;;;;;;5051042;28;20403;-82
2022/05/27 08:30:28;;;;;;;2.10;1.20;;;15.40;99.90;;;;;;5067251;28;20252;-83
2022/05/27 08:32:57;;;;;;;1.35;1.20;;;15.40;99.90;;;;;;5027423;28;20204;-80
2022/05/27 08:38:30;;;;;;;2.10;1.30;;;15.40;99.90;;;;;;5050622;28;20249;-84
2022/05/27 08:41:10;;;;;;;1.60;1.10;;;15.40;99.90;;;;;;5038080;28;20213;-82
2022/05/27 08:43:51;;;;;;;1.25;1.08;;;15.40;99.90;;;;;;5032548;28;20254;-87
2022/05/27 08:46:29;;;;;;;2.30;1.10;;;15.40;99.90;;;;;;5035627;28;20184;-76
2022/05/27 08:49:05;;;;;;;1.40;1.20;;;15.40;99.90;;;;;;5035217;28;20235;-81
2022/05/27 08:51:40;;;;;;;1.42;1.10;;;15.40;99.90;;;;;;5036648;28;20180;-81
2022/05/27 08:54:19;;;;;;;2.03;1.15;;;15.40;99.90;;;;;;5029926;28;20197;-86
2022/05/27 08:59:41;;;;;;;1.23;1.10;;;15.30;99.90;;;;;;5059926;28;20271;-82
2022/05/27 09:02:18;;;;;;;1.33;1.20;;;15.40;99.90;;;;;;5027241;28;20184;-84
2022/05/27 09:05:07;;;;;;;1.65;1.38;;;15.50;99.90;;;;;;5047813;28;20177;-84
2022/05/27 09:08:03;;;;;;;2.95;1.40;;;15.50;99.90;;;;;;5028853;28;20200;-82
2022/05/27 09:10:59;;;;;;;2.10;1.50;;;15.70;99.90;;;;;;5044911;28;20236;-80
2022/05/27 09:13:34;;;;;;;1.60;1.40;;;15.80;99.90;;;;;;5025948;28;20448;-83
2022/05/27 09:16:24;;;;;;;2.00;1.60;;;16.00;99.90;;;;;;5034274;28;20195;-76
2022/05/27 09:19:07;;;;;;;1.40;1.25;;;16.20;99.90;;;;;;5039616;28;20193;-76
2022/05/27 09:21:56;;;;;;;2.25;1.48;;;16.30;99.90;;;;;;5036298;28;20173;-75
2022/05/27 09:24:56;;;;;;;2.58;1.35;;;16.50;99.90;;;;;;5027136;28;20199;-77
2022/05/27 09:27:57;;;;;;;2.47;1.40;;;16.60;99.90;;;;;;5033362;28;20181;-77
2022/05/27 09:30:23;;;;;;;2.65;1.52;;;16.60;99.90;;;;;;5017395;28;20255;-77
2022/05/27 09:32:51;;;;;;;2.08;1.50;;;16.60;99.90;;;;;;5040019;28;20174;-77
2022/05/27 09:35:26;;;;;;;2.00;1.33;;;16.70;99.90;;;;;;5026149;28;20201;-74
2022/05/27 09:37:55;;;;;;;1.92;1.40;;;16.80;99.90;;;;;;5028390;28;20189;-71
2022/05/27 09:40:38;;;;;;;2.33;1.45;;;16.80;99.90;;;;;;5024145;28;20174;-76
2022/05/27 09:43:18;;;;;;;1.65;1.48;;;16.90;99.90;;;;;;5035208;28;20500;-75
2022/05/27 09:45:44;;;;;;;2.65;1.80;;;17.00;99.90;;;;;;5019406;28;20225;-74
2022/05/27 09:48:14;;;;;;;2.33;1.80;;;17.10;99.90;;;;;;5035836;28;20193;-75
2022/05/27 09:50:44;;;;;;;4.95;2.10;;;17.20;99.90;;;;;;5023690;28;20174;-78
2022/05/27 09:53:19;;;;;;;5.57;2.17;;;17.30;99.90;;;;;;5037138;28;20178;-76
2022/05/27 09:56:02;;;;;;;2.20;2.00;;;17.40;99.90;;;;;;5022262;28;20412;-76
2022/05/27 09:58:33;;;;;;;2.40;2.00;;;17.50;99.90;;;;;;5048849;28;20204;-74
2022/05/27 10:01:00;;;;;;;2.47;2.10;;;17.60;99.90;;;;;;5040367;28;20251;-75
2022/05/27 10:03:39;;;;;;;4.13;2.40;;;17.80;99.90;;;;;;5040623;28;20212;-76
2022/05/27 10:06:05;;;;;;;2.10;1.90;;;18.00;99.90;;;;;;5039904;28;20180;-77
2022/05/27 10:08:34;;;;;;;2.45;2.20;;;18.10;99.90;;;;;;5036882;28;20178;-75
2022/05/27 10:11:19;;;;;;;2.20;1.90;;;18.10;99.90;;;;;;5057084;28;20231;-73
2022/05/27 10:13:51;;;;;;;2.92;2.00;;;18.20;99.90;;;;;;5021005;28;20244;-75
2022/05/27 10:16:26;;;;;;;2.83;1.95;;;18.20;99.90;;;;;;5036226;28;20296;-74
2022/05/27 10:19:08;;;;;;;2.58;2.08;;;18.20;99.90;;;;;;5044536;28;20187;-74
2022/05/27 10:21:57;;;;;;;2.53;2.20;;;18.20;99.90;;;;;;5055460;28;20319;-74
2022/05/27 10:24:44;;;;;;;2.30;2.10;;;18.20;99.90;;;;;;5045545;28;20176;-74
2022/05/27 10:27:22;;;;;;;3.67;2.67;;;18.30;99.90;;;;;;5050953;28;20181;-73
2022/05/27 10:29:54;;;;;;;3.35;2.60;;;18.40;99.90;;;;;;5027636;28;20390;-73
2022/05/27 10:32:40;;;;;;;3.65;2.60;;;18.50;99.90;;;;;;5042254;28;20177;-73
2022/05/27 10:35:20;;;;;;;3.08;2.78;;;18.80;99.90;;;;;;5034295;28;20396;-74
2022/05/27 10:38:10;;;;;;;4.40;2.88;;;19.00;99.90;;;;;;5045078;28;20173;-74
2022/05/27 10:40:41;;;;;;;3.30;2.95;;;19.20;99.90;;;;;;5048325;28;20268;-74
2022/05/27 10:43:12;;;;;;;5.13;3.35;;;19.20;99.90;;;;;;5040245;28;20206;-71
2022/05/27 10:45:43;;;;;;;3.30;2.75;;;19.20;99.90;;;;;;5039898;28;20165;-74
2022/05/27 10:48:28;;;;;;;3.45;2.85;;;19.20;99.90;;;;;;5031189;28;20193;-76
2022/05/27 10:51:15;;;;;;;3.90;3.15;;;19.20;99.90;;;;;;5020139;28;20158;-75
2022/05/27 10:54:17;;;;;;;3.70;3.33;;;19.10;99.90;;;;;;5024498;28;20395;-74
2022/05/27 11:03:00;;;;;;;6.60;4.32;;;19.60;99.90;;;;;;5046768;28;20288;-74
2022/05/27 11:05:38;;;;;;;5.88;3.72;;;19.80;99.90;;;;;;5046140;28;20495;-75
2022/05/27 11:08:26;;;;;;;4.00;2.97;;;19.90;99.90;;;;;;5035920;28;20472;-78
2022/05/27 11:11:19;;;;;;;4.45;3.08;;;20.00;99.90;;;;;;5036070;28;20182;-77
2022/05/27 11:17:09;;;;;;;3.83;3.30;;;20.00;99.90;;;;;;5067651;28;20195;-77
2022/05/27 11:20:01;;;;;;;3.75;2.75;;;20.00;99.90;;;;;;5048254;28;20190;-77
2022/05/27 11:23:20;;;;;;;3.28;2.92;;;20.10;99.90;;;;;;5019282;28;20256;-77
2022/05/27 11:26:01;;;;;;;3.10;2.80;;;20.30;99.90;;;;;;5007089;28;20316;-78
2022/05/27 11:28:48;;;;;;;3.92;3.15;;;20.50;99.90;;;;;;5048393;28;20178;-79
2022/05/27 11:31:36;;;;;;;4.32;2.95;;;20.70;99.90;;;;;;5041850;28;20201;-78
2022/05/27 11:34:04;;;;;;;7.85;3.33;;;20.80;99.90;;;;;;5054023;28;20387;-78
2022/05/27 11:36:38;;;;;;;5.10;3.10;;;20.80;99.90;;;;;;5037543;28;20224;-82
2022/05/27 11:39:22;;;;;;;4.55;3.10;;;20.80;99.90;;;;;;5034379;28;21028;-80
2022/05/27 11:42:03;;;;;;;5.45;3.40;;;20.70;99.90;;;;;;5046320;28;20193;-80
2022/05/27 11:44:39;;;;;;;4.25;2.85;;;20.60;99.90;;;;;;5046925;28;20189;-81
2022/05/27 11:47:36;;;;;;;3.15;2.60;;;20.40;99.90;;;;;;5035105;28;20173;-75
2022/05/27 11:50:16;;;;;;;4.88;2.80;;;20.30;99.90;;;;;;5037072;28;20205;-77
2022/05/27 11:53:13;;;;;;;4.43;2.78;;;20.20;99.90;;;;;;5046685;28;20176;-80
2022/05/27 11:56:09;;;;;;;3.85;2.72;;;20.00;99.90;;;;;;5041809;28;20202;-80
2022/05/27 11:58:48;;;;;;;3.42;2.70;;;20.00;99.90;;;;;;5043116;28;20188;-80
2022/05/27 12:01:35;;;;;;;4.25;3.00;;;20.00;99.90;;;;;;5038167;28;20200;-81
2022/05/27 12:04:33;;;;;;;4.28;3.28;;;20.10;99.90;;;;;;5044258;28;20189;-79
2022/05/27 12:07:18;;;;;;;5.15;2.83;;;20.30;99.90;;;;;;5034211;28;20319;-78
2022/05/27 12:10:15;;;;;;;3.63;2.78;;;20.40;99.90;;;;;;5055913;28;20213;-79
2022/05/27 12:13:05;;;;;;;4.20;2.85;;;20.50;99.90;;;;;;5036562;28;20185;-79
2022/05/27 12:16:03;;;;;;;4.22;3.13;;;20.60;99.90;;;;;;5033905;28;20205;-78
2022/05/27 12:18:54;;;;;;;4.53;2.75;;;20.80;99.90;;;;;;5005346;28;20269;-77
2022/05/27 12:21:25;;;;;;;3.60;3.00;;;21.00;99.90;;;;;;5051284;28;20177;-83
2022/05/27 12:24:06;;;;;;;4.03;2.90;;;21.30;99.90;;;;;;5034713;28;20205;-77
2022/05/27 12:26:35;;;;;;;3.28;2.78;;;21.50;99.90;;;;;;5036719;28;20176;-81
2022/05/27 12:29:07;;;;;;;4.78;2.85;;;21.70;99.90;;;;;;5054355;28;20202;-80
2022/05/27 12:31:34;;;;;;;4.45;2.63;;;21.90;99.90;;;;;;5043465;28;20169;-77
2022/05/27 12:34:25;;;;;;;3.92;2.55;;;22.10;99.90;;;;;;5038706;28;20176;-80
2022/05/27 12:37:13;;;;;;;3.85;2.50;;;22.30;99.90;;;;;;5037405;28;20212;-81
2022/05/27 12:39:43;;;;;;;4.68;2.22;;;22.50;99.90;;;;;;5047713;28;20188;-79
2022/05/27 12:42:18;;;;;;;3.35;1.83;;;22.70;99.90;;;;;;5032140;28;20205;-78
2022/05/27 12:44:45;;;;;;;3.20;2.00;;;22.80;99.90;;;;;;5028154;28;20185;-79
2022/05/27 12:47:34;;;;;;;4.70;1.90;;;23.00;99.90;;;;;;5041757;28;20174;-78
2022/05/27 12:50:05;;;;;;;3.03;1.75;;;23.10;99.90;;;;;;5040812;28;20209;-77
2022/05/27 12:52:30;;;;;;;3.45;1.80;;;23.30;99.90;;;;;;5033265;28;20200;-75
2022/05/27 12:54:56;;;;;;;3.45;1.80;;;23.40;99.90;;;;;;5037328;28;20173;-78
2022/05/27 13:03:36;;;;;;;3.55;1.73;;;23.30;99.90;;;;;;5036083;28;20216;-78
2022/05/27 13:06:14;;;;;;;2.38;1.63;;;23.30;99.90;;;;;;5032994;28;20308;-79
2022/05/27 13:08:59;;;;;;;6.07;1.80;;;23.00;99.90;;;;;;5035160;28;20219;-79
2022/05/27 13:11:33;;;;;;;4.88;1.98;;;22.80;99.90;;;;;;5041356;28;20189;-78
2022/05/27 13:14:05;;;;;;;4.20;1.70;;;22.70;99.90;;;;;;5035081;28;20204;-79
2022/05/27 13:16:41;;;;;;;3.38;1.90;;;22.70;99.90;;;;;;5024834;28;20426;-74
2022/05/27 13:19:36;;;;;;;3.33;1.58;;;22.70;99.90;;;;;;5030544;28;20203;-77
2022/05/27 13:22:08;;;;;;;2.60;1.40;;;22.80;99.90;;;;;;5029339;28;20231;-78
2022/05/27 13:24:37;;;;;;;3.42;1.67;;;23.00;99.90;;;;;;5036201;28;20200;-78
2022/05/27 13:27:17;;;;;;;3.38;1.30;;;23.10;99.90;;;;;;5039463;28;20188;-77
2022/05/27 13:30:07;;;;;;;5.57;1.70;;;23.30;99.90;;;;;;5043215;28;20173;-78
2022/05/27 13:32:54;;;;;;;3.33;1.50;;;23.50;99.90;;;;;;5038347;28;20288;-78
2022/05/27 13:35:20;;;;;;;1.92;1.20;;;23.60;99.90;;;;;;5047918;28;20169;-77
2022/05/27 13:38:08;;;;;;;4.22;1.70;;;23.80;99.90;;;;;;5019858;28;20188;-76
2022/05/27 13:40:35;;;;;;;7.15;1.90;;;23.90;99.90;;;;;;5048162;28;20180;-77
2022/05/27 13:43:31;;;;;;;3.72;1.95;;;24.10;99.90;;;;;;5043700;28;20214;-76
2022/05/27 13:46:06;;;;;;;3.75;1.60;;;24.10;99.90;;;;;;5027403;28;20201;-79
2022/05/27 13:48:35;;;;;;;4.93;1.73;;;24.10;99.90;;;;;;5021191;28;20172;-78
2022/05/27 13:51:19;;;;;;;4.43;1.40;;;24.00;99.90;;;;;;5042229;28;20184;-79
2022/05/27 13:53:49;;;;;;;4.95;1.92;;;23.90;99.90;;;;;;5040385;28;20215;-77
2022/05/27 13:56:22;;;;;;;4.03;1.58;;;23.90;99.90;;;;;;5017316;28;20174;-76